MBH weather

Maryborough Airport
Maryborough, Queensland, Australia

Public forecast

Using degrees Celsius for public forecast. Weather courtesy of forecast.io.

METAR (pilot weather report)

Closest report is Bundaberg Airport, 42.4 nm (78.6 km) NNW. Retrieved 2019/04/20 14:30 UTC (0 seconds ago):

YBUD 201430Z AUTO 15009KT 7000 -SHRA BKN010 BKN021 BKN048 21/21 Q1018

TAF (pilot weather forecast)

Closest forecast is Brisbane International Airport, 114.4 nm (211.8 km) S. Retrieved 2019/04/20 12:00 UTC (2 hours ago):

TAF YBBN 201113Z 2012/2118 17008KT 9999 -SHRA SCT015 BKN025 BKN040 FM210000 12014KT 9999 NSW SCT025 FM211000 17008KT 9999 -SHRA SCT025 SCT040 INTER 2012/2024 3000 SHRA BKN012 INTER 2114/2118 3000 SHRA BKN012